sensor_id;sensor_type;location;lat;lon;timestamp;P1;durP1;ratioP1;P2;durP2;ratioP2
16512;SDS011;8369;48.030;11.598;2024-03-08T00:00:43;19.57;;;11.10;;
16512;SDS011;8369;48.030;11.598;2024-03-08T00:03:09;17.27;;;10.90;;
16512;SDS011;8369;48.030;11.598;2024-03-08T00:05:35;15.00;;;10.20;;
16512;SDS011;8369;48.030;11.598;2024-03-08T00:08:01;20.60;;;10.80;;
16512;SDS011;8369;48.030;11.598;2024-03-08T00:10:27;19.63;;;11.20;;
16512;SDS011;8369;48.030;11.598;2024-03-08T00:12:55;16.60;;;10.50;;
16512;SDS011;8369;48.030;11.598;2024-03-08T00:15:22;14.93;;;10.00;;
16512;SDS011;8369;48.030;11.598;2024-03-08T00:17:48;17.77;;;10.87;;
16512;SDS011;8369;48.030;11.598;2024-03-08T00:20:15;17.23;;;10.30;;
16512;SDS011;8369;48.030;11.598;2024-03-08T00:22:43;15.87;;;9.87;;
16512;SDS011;8369;48.030;11.598;2024-03-08T00:25:09;16.03;;;9.40;;
16512;SDS011;8369;48.030;11.598;2024-03-08T00:27:35;16.33;;;10.20;;
16512;SDS011;8369;48.030;11.598;2024-03-08T00:30:01;16.60;;;10.20;;
16512;SDS011;8369;48.030;11.598;2024-03-08T00:32:28;17.27;;;10.43;;
16512;SDS011;8369;48.030;11.598;2024-03-08T00:34:54;13.57;;;8.67;;
16512;SDS011;8369;48.030;11.598;2024-03-08T00:37:20;14.33;;;9.77;;
16512;SDS011;8369;48.030;11.598;2024-03-08T00:39:50;14.17;;;8.93;;
16512;SDS011;8369;48.030;11.598;2024-03-08T00:42:17;15.77;;;10.00;;
16512;SDS011;8369;48.030;11.598;2024-03-08T00:44:43;16.67;;;9.80;;
16512;SDS011;8369;48.030;11.598;2024-03-08T00:47:10;16.70;;;10.33;;
16512;SDS011;8369;48.030;11.598;2024-03-08T00:49:37;15.37;;;10.27;;
16512;SDS011;8369;48.030;11.598;2024-03-08T00:52:06;21.43;;;10.17;;
16512;SDS011;8369;48.030;11.598;2024-03-08T00:54:32;16.50;;;9.23;;
16512;SDS011;8369;48.030;11.598;2024-03-08T00:56:58;16.83;;;10.00;;
16512;SDS011;8369;48.030;11.598;2024-03-08T00:59:28;17.17;;;10.37;;
16512;SDS011;8369;48.030;11.598;2024-03-08T01:01:54;14.00;;;9.17;;
16512;SDS011;8369;48.030;11.598;2024-03-08T01:04:20;14.63;;;9.30;;
16512;SDS011;8369;48.030;11.598;2024-03-08T01:06:48;16.27;;;9.50;;
16512;SDS011;8369;48.030;11.598;2024-03-08T01:09:20;16.63;;;9.50;;
16512;SDS011;8369;48.030;11.598;2024-03-08T01:11:46;15.10;;;10.07;;
16512;SDS011;8369;48.030;11.598;2024-03-08T01:14:13;14.87;;;9.23;;
16512;SDS011;8369;48.030;11.598;2024-03-08T01:16:39;16.80;;;10.63;;
16512;SDS011;8369;48.030;11.598;2024-03-08T01:19:05;16.97;;;9.27;;
16512;SDS011;8369;48.030;11.598;2024-03-08T01:21:30;15.23;;;9.47;;
16512;SDS011;8369;48.030;11.598;2024-03-08T01:23:56;15.77;;;8.83;;
16512;SDS011;8369;48.030;11.598;2024-03-08T01:26:22;15.87;;;9.57;;
16512;SDS011;8369;48.030;11.598;2024-03-08T01:28:48;14.87;;;8.90;;
16512;SDS011;8369;48.030;11.598;2024-03-08T01:31:16;16.50;;;9.73;;
16512;SDS011;8369;48.030;11.598;2024-03-08T01:33:42;15.57;;;9.40;;
16512;SDS011;8369;48.030;11.598;2024-03-08T01:36:07;17.37;;;9.40;;
16512;SDS011;8369;48.030;11.598;2024-03-08T01:38:33;14.50;;;9.30;;
16512;SDS011;8369;48.030;11.598;2024-03-08T01:40:59;15.27;;;9.87;;
16512;SDS011;8369;48.030;11.598;2024-03-08T01:43:25;16.33;;;9.40;;
16512;SDS011;8369;48.030;11.598;2024-03-08T01:45:55;16.33;;;9.73;;
16512;SDS011;8369;48.030;11.598;2024-03-08T01:48:26;13.77;;;8.43;;
16512;SDS011;8369;48.030;11.598;2024-03-08T01:50:55;16.40;;;8.97;;
16512;SDS011;8369;48.030;11.598;2024-03-08T01:53:23;14.37;;;8.40;;
16512;SDS011;8369;48.030;11.598;2024-03-08T01:55:52;14.63;;;9.67;;
16512;SDS011;8369;48.030;11.598;2024-03-08T01:58:21;13.70;;;9.13;;
16512;SDS011;8369;48.030;11.598;2024-03-08T02:00:48;15.10;;;9.17;;
16512;SDS011;8369;48.030;11.598;2024-03-08T02:03:15;15.83;;;9.50;;
16512;SDS011;8369;48.030;11.598;2024-03-08T02:05:41;14.60;;;9.43;;
16512;SDS011;8369;48.030;11.598;2024-03-08T02:08:08;16.20;;;9.97;;
16512;SDS011;8369;48.030;11.598;2024-03-08T02:10:38;14.50;;;9.47;;
16512;SDS011;8369;48.030;11.598;2024-03-08T02:13:04;14.57;;;8.93;;
16512;SDS011;8369;48.030;11.598;2024-03-08T02:18:29;16.60;;;8.90;;
16512;SDS011;8369;48.030;11.598;2024-03-08T02:21:00;16.83;;;9.90;;
16512;SDS011;8369;48.030;11.598;2024-03-08T02:23:29;15.13;;;9.67;;
16512;SDS011;8369;48.030;11.598;2024-03-08T02:25:55;13.20;;;8.80;;
16512;SDS011;8369;48.030;11.598;2024-03-08T02:28:22;15.43;;;9.87;;
16512;SDS011;8369;48.030;11.598;2024-03-08T02:30:49;14.50;;;9.17;;
16512;SDS011;8369;48.030;11.598;2024-03-08T02:33:22;14.87;;;8.70;;
16512;SDS011;8369;48.030;11.598;2024-03-08T02:35:48;14.13;;;9.17;;
16512;SDS011;8369;48.030;11.598;2024-03-08T02:38:16;16.80;;;9.33;;
16512;SDS011;8369;48.030;11.598;2024-03-08T02:40:46;13.93;;;8.90;;
16512;SDS011;8369;48.030;11.598;2024-03-08T02:43:13;13.07;;;8.93;;
16512;SDS011;8369;48.030;11.598;2024-03-08T02:45:40;12.93;;;8.83;;
16512;SDS011;8369;48.030;11.598;2024-03-08T02:48:10;13.80;;;8.53;;
16512;SDS011;8369;48.030;11.598;2024-03-08T02:50:37;17.07;;;9.60;;
16512;SDS011;8369;48.030;11.598;2024-03-08T02:53:04;14.23;;;8.70;;
16512;SDS011;8369;48.030;11.598;2024-03-08T02:55:30;15.30;;;9.57;;
16512;SDS011;8369;48.030;11.598;2024-03-08T02:57:56;14.23;;;8.83;;
16512;SDS011;8369;48.030;11.598;2024-03-08T03:00:23;15.93;;;9.20;;
16512;SDS011;8369;48.030;11.598;2024-03-08T03:02:49;15.63;;;8.37;;
16512;SDS011;8369;48.030;11.598;2024-03-08T03:05:22;12.10;;;7.80;;
16512;SDS011;8369;48.030;11.598;2024-03-08T03:07:50;12.47;;;8.80;;
16512;SDS011;8369;48.030;11.598;2024-03-08T03:10:16;13.43;;;8.73;;
16512;SDS011;8369;48.030;11.598;2024-03-08T03:12:43;15.67;;;8.83;;
16512;SDS011;8369;48.030;11.598;2024-03-08T03:15:12;14.67;;;8.93;;
16512;SDS011;8369;48.030;11.598;2024-03-08T03:17:39;14.37;;;8.53;;
16512;SDS011;8369;48.030;11.598;2024-03-08T03:20:08;13.77;;;8.80;;
16512;SDS011;8369;48.030;11.598;2024-03-08T03:22:38;14.23;;;8.47;;
16512;SDS011;8369;48.030;11.598;2024-03-08T03:25:04;17.47;;;8.83;;
16512;SDS011;8369;48.030;11.598;2024-03-08T03:27:31;16.37;;;9.13;;
16512;SDS011;8369;48.030;11.598;2024-03-08T03:29:58;13.33;;;9.40;;
16512;SDS011;8369;48.030;11.598;2024-03-08T03:32:44;14.50;;;8.60;;
16512;SDS011;8369;48.030;11.598;2024-03-08T03:35:12;14.87;;;8.67;;
16512;SDS011;8369;48.030;11.598;2024-03-08T03:37:40;15.83;;;8.93;;
16512;SDS011;8369;48.030;11.598;2024-03-08T03:40:08;17.67;;;9.53;;
16512;SDS011;8369;48.030;11.598;2024-03-08T03:42:34;14.87;;;8.63;;
16512;SDS011;8369;48.030;11.598;2024-03-08T03:45:00;15.77;;;9.43;;
16512;SDS011;8369;48.030;11.598;2024-03-08T03:47:27;11.90;;;8.53;;
16512;SDS011;8369;48.030;11.598;2024-03-08T03:49:53;18.57;;;10.07;;
16512;SDS011;8369;48.030;11.598;2024-03-08T03:52:19;15.53;;;9.90;;
16512;SDS011;8369;48.030;11.598;2024-03-08T03:54:45;17.00;;;10.30;;
16512;SDS011;8369;48.030;11.598;2024-03-08T03:57:11;20.17;;;11.40;;
16512;SDS011;8369;48.030;11.598;2024-03-08T03:59:37;15.07;;;9.13;;
16512;SDS011;8369;48.030;11.598;2024-03-08T04:02:03;18.17;;;10.73;;
16512;SDS011;8369;48.030;11.598;2024-03-08T04:04:29;16.40;;;10.47;;
16512;SDS011;8369;48.030;11.598;2024-03-08T04:06:55;19.13;;;12.17;;
16512;SDS011;8369;48.030;11.598;2024-03-08T04:09:20;16.27;;;10.70;;
16512;SDS011;8369;48.030;11.598;2024-03-08T04:11:48;16.73;;;10.53;;
16512;SDS011;8369;48.030;11.598;2024-03-08T04:14:15;16.10;;;10.47;;
16512;SDS011;8369;48.030;11.598;2024-03-08T04:16:41;14.03;;;9.47;;
16512;SDS011;8369;48.030;11.598;2024-03-08T04:19:07;15.00;;;9.57;;
16512;SDS011;8369;48.030;11.598;2024-03-08T04:21:35;15.13;;;9.13;;
16512;SDS011;8369;48.030;11.598;2024-03-08T04:24:00;15.10;;;9.77;;
16512;SDS011;8369;48.030;11.598;2024-03-08T04:26:26;15.43;;;9.10;;
16512;SDS011;8369;48.030;11.598;2024-03-08T04:28:53;15.37;;;9.03;;
16512;SDS011;8369;48.030;11.598;2024-03-08T04:31:19;14.77;;;8.53;;
16512;SDS011;8369;48.030;11.598;2024-03-08T04:33:44;16.43;;;9.00;;
16512;SDS011;8369;48.030;11.598;2024-03-08T04:36:10;20.97;;;9.37;;
16512;SDS011;8369;48.030;11.598;2024-03-08T04:38:38;14.23;;;8.60;;
16512;SDS011;8369;48.030;11.598;2024-03-08T04:41:06;15.40;;;9.33;;
16512;SDS011;8369;48.030;11.598;2024-03-08T04:43:33;16.47;;;9.03;;
16512;SDS011;8369;48.030;11.598;2024-03-08T04:45:59;16.33;;;9.53;;
16512;SDS011;8369;48.030;11.598;2024-03-08T04:48:25;18.53;;;10.53;;
16512;SDS011;8369;48.030;11.598;2024-03-08T04:50:54;16.40;;;9.63;;
16512;SDS011;8369;48.030;11.598;2024-03-08T04:53:20;16.90;;;10.37;;
16512;SDS011;8369;48.030;11.598;2024-03-08T04:55:46;16.10;;;9.77;;
16512;SDS011;8369;48.030;11.598;2024-03-08T04:58:12;17.13;;;9.73;;
16512;SDS011;8369;48.030;11.598;2024-03-08T05:00:38;15.30;;;9.83;;
16512;SDS011;8369;48.030;11.598;2024-03-08T05:03:04;15.43;;;9.73;;
16512;SDS011;8369;48.030;11.598;2024-03-08T05:05:30;15.53;;;9.10;;
16512;SDS011;8369;48.030;11.598;2024-03-08T05:07:56;18.83;;;10.13;;
16512;SDS011;8369;48.030;11.598;2024-03-08T05:10:22;16.50;;;10.87;;
16512;SDS011;8369;48.030;11.598;2024-03-08T05:12:48;17.20;;;10.03;;
16512;SDS011;8369;48.030;11.598;2024-03-08T05:15:13;15.70;;;10.30;;
16512;SDS011;8369;48.030;11.598;2024-03-08T05:17:39;16.83;;;10.13;;
16512;SDS011;8369;48.030;11.598;2024-03-08T05:20:06;18.33;;;10.60;;
16512;SDS011;8369;48.030;11.598;2024-03-08T05:22:37;17.50;;;10.73;;
16512;SDS011;8369;48.030;11.598;2024-03-08T05:25:03;18.50;;;10.97;;
16512;SDS011;8369;48.030;11.598;2024-03-08T05:27:29;21.97;;;11.33;;
16512;SDS011;8369;48.030;11.598;2024-03-08T05:29:55;17.17;;;10.77;;
16512;SDS011;8369;48.030;11.598;2024-03-08T05:32:20;19.17;;;10.60;;
16512;SDS011;8369;48.030;11.598;2024-03-08T05:34:47;19.87;;;11.10;;
16512;SDS011;8369;48.030;11.598;2024-03-08T05:37:13;17.93;;;10.87;;
16512;SDS011;8369;48.030;11.598;2024-03-08T05:39:38;20.20;;;10.33;;
16512;SDS011;8369;48.030;11.598;2024-03-08T05:42:06;21.23;;;11.17;;
16512;SDS011;8369;48.030;11.598;2024-03-08T05:44:33;18.63;;;11.33;;
16512;SDS011;8369;48.030;11.598;2024-03-08T05:46:59;24.17;;;12.20;;
16512;SDS011;8369;48.030;11.598;2024-03-08T05:49:25;17.43;;;10.93;;
16512;SDS011;8369;48.030;11.598;2024-03-08T05:51:52;19.73;;;11.40;;
16512;SDS011;8369;48.030;11.598;2024-03-08T05:54:19;20.00;;;11.90;;
16512;SDS011;8369;48.030;11.598;2024-03-08T05:56:47;21.77;;;12.77;;
16512;SDS011;8369;48.030;11.598;2024-03-08T05:59:13;20.67;;;12.23;;
16512;SDS011;8369;48.030;11.598;2024-03-08T06:01:39;21.50;;;11.93;;
16512;SDS011;8369;48.030;11.598;2024-03-08T06:04:06;20.50;;;12.60;;
16512;SDS011;8369;48.030;11.598;2024-03-08T06:06:32;21.33;;;12.37;;
16512;SDS011;8369;48.030;11.598;2024-03-08T06:08:58;20.47;;;12.50;;
16512;SDS011;8369;48.030;11.598;2024-03-08T06:11:25;20.20;;;11.33;;
16512;SDS011;8369;48.030;11.598;2024-03-08T06:13:53;20.83;;;12.73;;
16512;SDS011;8369;48.030;11.598;2024-03-08T06:16:24;18.03;;;11.07;;
16512;SDS011;8369;48.030;11.598;2024-03-08T06:18:57;21.50;;;12.87;;
16512;SDS011;8369;48.030;11.598;2024-03-08T06:21:26;20.50;;;12.37;;
16512;SDS011;8369;48.030;11.598;2024-03-08T06:23:54;21.10;;;11.50;;
16512;SDS011;8369;48.030;11.598;2024-03-08T06:26:23;19.97;;;11.90;;
16512;SDS011;8369;48.030;11.598;2024-03-08T06:28:54;20.37;;;11.83;;
16512;SDS011;8369;48.030;11.598;2024-03-08T06:31:20;18.37;;;11.30;;
16512;SDS011;8369;48.030;11.598;2024-03-08T06:33:46;19.67;;;12.33;;
16512;SDS011;8369;48.030;11.598;2024-03-08T06:36:15;19.93;;;11.80;;
16512;SDS011;8369;48.030;11.598;2024-03-08T06:38:44;20.73;;;12.23;;
16512;SDS011;8369;48.030;11.598;2024-03-08T06:41:11;23.00;;;13.33;;
16512;SDS011;8369;48.030;11.598;2024-03-08T06:43:43;19.97;;;12.13;;
16512;SDS011;8369;48.030;11.598;2024-03-08T06:46:10;18.93;;;11.50;;
16512;SDS011;8369;48.030;11.598;2024-03-08T06:48:40;23.07;;;12.60;;
16512;SDS011;8369;48.030;11.598;2024-03-08T06:51:06;21.23;;;10.63;;
16512;SDS011;8369;48.030;11.598;2024-03-08T06:53:32;19.87;;;11.30;;
16512;SDS011;8369;48.030;11.598;2024-03-08T06:55:58;23.63;;;11.67;;
16512;SDS011;8369;48.030;11.598;2024-03-08T06:58:24;20.20;;;12.33;;
16512;SDS011;8369;48.030;11.598;2024-03-08T07:00:50;26.70;;;12.57;;
16512;SDS011;8369;48.030;11.598;2024-03-08T07:03:17;23.60;;;12.97;;
16512;SDS011;8369;48.030;11.598;2024-03-08T07:05:44;19.23;;;11.40;;
16512;SDS011;8369;48.030;11.598;2024-03-08T07:08:09;20.60;;;12.37;;
16512;SDS011;8369;48.030;11.598;2024-03-08T07:10:35;18.30;;;11.33;;
16512;SDS011;8369;48.030;11.598;2024-03-08T07:13:02;19.67;;;11.70;;
16512;SDS011;8369;48.030;11.598;2024-03-08T07:15:28;20.40;;;12.17;;
16512;SDS011;8369;48.030;11.598;2024-03-08T07:17:54;17.40;;;10.37;;
16512;SDS011;8369;48.030;11.598;2024-03-08T07:20:21;18.83;;;11.53;;
16512;SDS011;8369;48.030;11.598;2024-03-08T07:22:47;22.83;;;12.00;;
16512;SDS011;8369;48.030;11.598;2024-03-08T07:25:13;24.87;;;12.77;;
16512;SDS011;8369;48.030;11.598;2024-03-08T07:27:50;21.67;;;12.83;;
16512;SDS011;8369;48.030;11.598;2024-03-08T07:30:17;19.53;;;11.80;;
16512;SDS011;8369;48.030;11.598;2024-03-08T07:33:02;23.40;;;12.73;;
16512;SDS011;8369;48.030;11.598;2024-03-08T07:35:29;20.93;;;11.97;;
16512;SDS011;8369;48.030;11.598;2024-03-08T07:37:55;20.00;;;11.00;;
16512;SDS011;8369;48.030;11.598;2024-03-08T07:40:21;21.83;;;11.83;;
16512;SDS011;8369;48.030;11.598;2024-03-08T07:42:48;19.20;;;12.07;;
16512;SDS011;8369;48.030;11.598;2024-03-08T07:45:14;21.37;;;12.90;;
16512;SDS011;8369;48.030;11.598;2024-03-08T07:47:41;21.07;;;12.33;;
16512;SDS011;8369;48.030;11.598;2024-03-08T07:50:07;20.37;;;11.00;;
16512;SDS011;8369;48.030;11.598;2024-03-08T07:52:34;21.23;;;11.53;;
16512;SDS011;8369;48.030;11.598;2024-03-08T07:55:00;26.03;;;12.47;;
16512;SDS011;8369;48.030;11.598;2024-03-08T07:57:27;17.80;;;10.83;;
16512;SDS011;8369;48.030;11.598;2024-03-08T07:59:53;21.43;;;11.67;;
16512;SDS011;8369;48.030;11.598;2024-03-08T08:02:18;24.73;;;13.37;;
16512;SDS011;8369;48.030;11.598;2024-03-08T08:04:44;21.57;;;12.30;;
16512;SDS011;8369;48.030;11.598;2024-03-08T08:07:10;25.87;;;13.63;;
16512;SDS011;8369;48.030;11.598;2024-03-08T08:09:36;26.17;;;14.30;;
16512;SDS011;8369;48.030;11.598;2024-03-08T08:12:02;23.27;;;12.23;;
16512;SDS011;8369;48.030;11.598;2024-03-08T08:14:29;20.90;;;12.03;;
16512;SDS011;8369;48.030;11.598;2024-03-08T08:16:56;25.57;;;13.90;;
16512;SDS011;8369;48.030;11.598;2024-03-08T08:19:23;20.17;;;11.53;;
16512;SDS011;8369;48.030;11.598;2024-03-08T08:21:51;21.90;;;13.03;;
16512;SDS011;8369;48.030;11.598;2024-03-08T08:24:17;23.90;;;13.13;;
16512;SDS011;8369;48.030;11.598;2024-03-08T08:26:43;20.50;;;12.13;;
16512;SDS011;8369;48.030;11.598;2024-03-08T08:29:09;22.17;;;12.63;;
16512;SDS011;8369;48.030;11.598;2024-03-08T08:31:35;19.27;;;11.87;;
16512;SDS011;8369;48.030;11.598;2024-03-08T08:34:01;19.57;;;11.73;;
16512;SDS011;8369;48.030;11.598;2024-03-08T08:36:28;19.67;;;11.67;;
16512;SDS011;8369;48.030;11.598;2024-03-08T08:38:55;19.57;;;11.40;;
16512;SDS011;8369;48.030;11.598;2024-03-08T08:41:23;19.43;;;10.83;;
16512;SDS011;8369;48.030;11.598;2024-03-08T08:43:49;21.63;;;12.27;;
16512;SDS011;8369;48.030;11.598;2024-03-08T08:46:18;19.13;;;11.23;;
16512;SDS011;8369;48.030;11.598;2024-03-08T08:48:44;24.03;;;13.37;;
16512;SDS011;8369;48.030;11.598;2024-03-08T08:51:13;18.57;;;10.93;;
16512;SDS011;8369;48.030;11.598;2024-03-08T08:53:39;19.77;;;11.40;;
16512;SDS011;8369;48.030;11.598;2024-03-08T08:56:14;18.90;;;11.60;;
16512;SDS011;8369;48.030;11.598;2024-03-08T08:58:43;19.07;;;11.27;;
16512;SDS011;8369;48.030;11.598;2024-03-08T09:01:10;20.20;;;12.13;;
16512;SDS011;8369;48.030;11.598;2024-03-08T09:03:36;18.00;;;11.43;;
16512;SDS011;8369;48.030;11.598;2024-03-08T09:06:03;20.30;;;12.20;;
16512;SDS011;8369;48.030;11.598;2024-03-08T09:08:29;19.83;;;11.83;;
16512;SDS011;8369;48.030;11.598;2024-03-08T09:10:55;18.97;;;11.40;;
16512;SDS011;8369;48.030;11.598;2024-03-08T09:13:21;16.97;;;11.07;;
16512;SDS011;8369;48.030;11.598;2024-03-08T09:15:48;18.93;;;11.63;;
16512;SDS011;8369;48.030;11.598;2024-03-08T09:18:14;19.87;;;11.13;;
16512;SDS011;8369;48.030;11.598;2024-03-08T09:20:39;20.87;;;12.77;;
16512;SDS011;8369;48.030;11.598;2024-03-08T09:23:06;20.27;;;12.23;;
16512;SDS011;8369;48.030;11.598;2024-03-08T09:25:33;19.93;;;11.50;;
16512;SDS011;8369;48.030;11.598;2024-03-08T09:27:59;22.83;;;11.60;;
16512;SDS011;8369;48.030;11.598;2024-03-08T09:30:25;21.73;;;11.77;;
16512;SDS011;8369;48.030;11.598;2024-03-08T09:32:51;19.90;;;11.27;;
16512;SDS011;8369;48.030;11.598;2024-03-08T09:35:16;20.73;;;11.43;;
16512;SDS011;8369;48.030;11.598;2024-03-08T09:37:43;18.67;;;11.33;;
16512;SDS011;8369;48.030;11.598;2024-03-08T09:40:08;15.53;;;10.60;;
16512;SDS011;8369;48.030;11.598;2024-03-08T09:42:36;18.77;;;11.77;;
16512;SDS011;8369;48.030;11.598;2024-03-08T09:45:08;18.23;;;11.53;;
16512;SDS011;8369;48.030;11.598;2024-03-08T09:47:42;18.53;;;11.60;;
16512;SDS011;8369;48.030;11.598;2024-03-08T09:50:09;17.40;;;11.43;;
16512;SDS011;8369;48.030;11.598;2024-03-08T09:52:41;18.47;;;11.73;;
16512;SDS011;8369;48.030;11.598;2024-03-08T09:55:09;19.43;;;11.23;;
16512;SDS011;8369;48.030;11.598;2024-03-08T09:57:38;18.93;;;11.03;;
16512;SDS011;8369;48.030;11.598;2024-03-08T10:00:05;18.60;;;11.30;;
16512;SDS011;8369;48.030;11.598;2024-03-08T10:02:49;15.33;;;10.53;;
16512;SDS011;8369;48.030;11.598;2024-03-08T10:05:17;15.90;;;10.67;;
16512;SDS011;8369;48.030;11.598;2024-03-08T10:07:44;16.33;;;10.50;;
16512;SDS011;8369;48.030;11.598;2024-03-08T10:10:09;16.93;;;10.77;;
16512;SDS011;8369;48.030;11.598;2024-03-08T10:12:37;19.57;;;11.00;;
16512;SDS011;8369;48.030;11.598;2024-03-08T10:15:07;17.13;;;9.83;;
16512;SDS011;8369;48.030;11.598;2024-03-08T10:17:36;17.53;;;9.80;;
16512;SDS011;8369;48.030;11.598;2024-03-08T10:20:02;18.07;;;11.03;;
16512;SDS011;8369;48.030;11.598;2024-03-08T10:22:30;19.33;;;11.60;;
16512;SDS011;8369;48.030;11.598;2024-03-08T10:24:56;21.77;;;11.37;;
16512;SDS011;8369;48.030;11.598;2024-03-08T10:27:23;18.73;;;10.77;;
16512;SDS011;8369;48.030;11.598;2024-03-08T10:29:50;15.93;;;10.57;;
16512;SDS011;8369;48.030;11.598;2024-03-08T10:32:17;17.80;;;10.83;;
16512;SDS011;8369;48.030;11.598;2024-03-08T10:34:43;18.30;;;11.57;;
16512;SDS011;8369;48.030;11.598;2024-03-08T10:37:12;21.13;;;11.70;;
16512;SDS011;8369;48.030;11.598;2024-03-08T10:39:43;18.10;;;10.40;;
16512;SDS011;8369;48.030;11.598;2024-03-08T10:42:20;17.60;;;11.27;;
16512;SDS011;8369;48.030;11.598;2024-03-08T10:44:53;19.30;;;10.90;;
16512;SDS011;8369;48.030;11.598;2024-03-08T10:47:31;17.70;;;11.23;;
16512;SDS011;8369;48.030;11.598;2024-03-08T10:50:17;18.17;;;10.13;;
16512;SDS011;8369;48.030;11.598;2024-03-08T10:52:49;17.23;;;10.57;;
16512;SDS011;8369;48.030;11.598;2024-03-08T10:55:16;18.00;;;11.67;;
16512;SDS011;8369;48.030;11.598;2024-03-08T10:57:43;14.63;;;9.87;;
16512;SDS011;8369;48.030;11.598;2024-03-08T11:00:11;15.83;;;9.53;;
16512;SDS011;8369;48.030;11.598;2024-03-08T11:02:38;17.20;;;10.23;;
16512;SDS011;8369;48.030;11.598;2024-03-08T11:05:04;17.83;;;10.07;;
16512;SDS011;8369;48.030;11.598;2024-03-08T11:07:35;15.93;;;9.90;;
16512;SDS011;8369;48.030;11.598;2024-03-08T11:10:03;13.73;;;9.53;;
16512;SDS011;8369;48.030;11.598;2024-03-08T11:12:35;15.57;;;9.77;;
16512;SDS011;8369;48.030;11.598;2024-03-08T11:15:11;15.07;;;9.07;;
16512;SDS011;8369;48.030;11.598;2024-03-08T11:17:47;14.77;;;9.90;;
16512;SDS011;8369;48.030;11.598;2024-03-08T11:20:14;17.83;;;10.17;;
16512;SDS011;8369;48.030;11.598;2024-03-08T11:22:52;16.00;;;9.67;;
16512;SDS011;8369;48.030;11.598;2024-03-08T11:25:41;15.00;;;9.87;;
16512;SDS011;8369;48.030;11.598;2024-03-08T11:30:42;14.60;;;9.60;;
16512;SDS011;8369;48.030;11.598;2024-03-08T11:33:24;15.37;;;9.33;;
16512;SDS011;8369;48.030;11.598;2024-03-08T11:35:52;13.10;;;8.87;;
16512;SDS011;8369;48.030;11.598;2024-03-08T11:38:23;15.23;;;9.57;;
16512;SDS011;8369;48.030;11.598;2024-03-08T11:40:50;14.80;;;9.80;;
16512;SDS011;8369;48.030;11.598;2024-03-08T11:43:16;15.37;;;9.67;;
16512;SDS011;8369;48.030;11.598;2024-03-08T11:45:42;15.00;;;9.90;;
16512;SDS011;8369;48.030;11.598;2024-03-08T11:48:07;14.83;;;9.50;;
16512;SDS011;8369;48.030;11.598;2024-03-08T11:50:33;16.63;;;9.87;;
16512;SDS011;8369;48.030;11.598;2024-03-08T11:53:03;17.83;;;9.67;;
16512;SDS011;8369;48.030;11.598;2024-03-08T11:55:30;18.27;;;9.77;;
16512;SDS011;8369;48.030;11.598;2024-03-08T11:58:01;15.43;;;9.13;;
16512;SDS011;8369;48.030;11.598;2024-03-08T12:00:28;14.03;;;9.20;;
16512;SDS011;8369;48.030;11.598;2024-03-08T12:03:07;15.90;;;9.83;;
16512;SDS011;8369;48.030;11.598;2024-03-08T12:05:34;16.90;;;9.43;;
16512;SDS011;8369;48.030;11.598;2024-03-08T12:08:04;16.00;;;9.93;;
16512;SDS011;8369;48.030;11.598;2024-03-08T12:10:32;16.40;;;10.30;;
16512;SDS011;8369;48.030;11.598;2024-03-08T12:12:58;16.57;;;9.73;;
16512;SDS011;8369;48.030;11.598;2024-03-08T12:15:24;18.50;;;9.97;;
16512;SDS011;8369;48.030;11.598;2024-03-08T12:17:51;15.67;;;10.27;;
16512;SDS011;8369;48.030;11.598;2024-03-08T12:20:18;15.83;;;9.93;;
16512;SDS011;8369;48.030;11.598;2024-03-08T12:22:50;17.17;;;10.60;;
16512;SDS011;8369;48.030;11.598;2024-03-08T12:25:18;14.97;;;10.00;;
16512;SDS011;8369;48.030;11.598;2024-03-08T12:27:45;13.13;;;9.27;;
16512;SDS011;8369;48.030;11.598;2024-03-08T12:30:20;14.97;;;9.13;;
16512;SDS011;8369;48.030;11.598;2024-03-08T12:32:54;15.83;;;10.83;;
16512;SDS011;8369;48.030;11.598;2024-03-08T12:35:26;17.47;;;11.13;;
16512;SDS011;8369;48.030;11.598;2024-03-08T12:37:54;14.90;;;10.30;;
16512;SDS011;8369;48.030;11.598;2024-03-08T12:40:28;14.63;;;9.93;;
16512;SDS011;8369;48.030;11.598;2024-03-08T12:42:59;16.97;;;10.20;;
16512;SDS011;8369;48.030;11.598;2024-03-08T12:45:26;15.50;;;10.00;;
16512;SDS011;8369;48.030;11.598;2024-03-08T12:47:53;17.00;;;10.60;;
16512;SDS011;8369;48.030;11.598;2024-03-08T12:50:20;15.50;;;10.17;;
16512;SDS011;8369;48.030;11.598;2024-03-08T12:52:46;16.33;;;10.27;;
16512;SDS011;8369;48.030;11.598;2024-03-08T12:55:13;17.47;;;10.77;;
16512;SDS011;8369;48.030;11.598;2024-03-08T12:57:41;15.90;;;9.83;;
16512;SDS011;8369;48.030;11.598;2024-03-08T13:00:08;16.37;;;10.17;;
16512;SDS011;8369;48.030;11.598;2024-03-08T13:02:48;14.73;;;9.83;;
16512;SDS011;8369;48.030;11.598;2024-03-08T13:05:16;14.70;;;9.63;;
16512;SDS011;8369;48.030;11.598;2024-03-08T13:07:42;17.37;;;10.70;;
16512;SDS011;8369;48.030;11.598;2024-03-08T13:10:12;17.33;;;10.77;;
16512;SDS011;8369;48.030;11.598;2024-03-08T13:12:43;15.87;;;10.17;;
16512;SDS011;8369;48.030;11.598;2024-03-08T13:15:09;15.53;;;10.60;;
16512;SDS011;8369;48.030;11.598;2024-03-08T13:17:40;15.07;;;9.30;;
16512;SDS011;8369;48.030;11.598;2024-03-08T13:20:07;15.97;;;9.90;;
16512;SDS011;8369;48.030;11.598;2024-03-08T13:22:34;17.17;;;10.53;;
16512;SDS011;8369;48.030;11.598;2024-03-08T13:25:00;15.87;;;9.97;;
16512;SDS011;8369;48.030;11.598;2024-03-08T13:27:29;13.83;;;10.17;;
16512;SDS011;8369;48.030;11.598;2024-03-08T13:29:55;17.13;;;9.63;;
16512;SDS011;8369;48.030;11.598;2024-03-08T13:32:21;15.53;;;10.13;;
16512;SDS011;8369;48.030;11.598;2024-03-08T13:34:47;16.47;;;10.60;;
16512;SDS011;8369;48.030;11.598;2024-03-08T13:37:13;17.20;;;9.93;;
16512;SDS011;8369;48.030;11.598;2024-03-08T13:39:41;15.53;;;10.03;;
16512;SDS011;8369;48.030;11.598;2024-03-08T13:42:17;15.13;;;10.27;;
16512;SDS011;8369;48.030;11.598;2024-03-08T13:44:45;15.03;;;10.07;;
16512;SDS011;8369;48.030;11.598;2024-03-08T13:47:15;15.73;;;10.33;;
16512;SDS011;8369;48.030;11.598;2024-03-08T13:49:42;14.20;;;9.77;;
16512;SDS011;8369;48.030;11.598;2024-03-08T13:52:09;16.67;;;10.77;;
16512;SDS011;8369;48.030;11.598;2024-03-08T13:54:36;16.37;;;9.63;;
16512;SDS011;8369;48.030;11.598;2024-03-08T13:57:03;13.00;;;8.90;;
16512;SDS011;8369;48.030;11.598;2024-03-08T13:59:30;14.67;;;9.47;;
16512;SDS011;8369;48.030;11.598;2024-03-08T14:01:58;16.73;;;10.37;;
16512;SDS011;8369;48.030;11.598;2024-03-08T14:04:24;17.00;;;9.50;;
16512;SDS011;8369;48.030;11.598;2024-03-08T14:06:52;15.03;;;9.40;;
16512;SDS011;8369;48.030;11.598;2024-03-08T14:09:22;15.83;;;9.87;;
16512;SDS011;8369;48.030;11.598;2024-03-08T14:11:55;15.23;;;10.07;;
16512;SDS011;8369;48.030;11.598;2024-03-08T14:14:21;16.30;;;10.40;;
16512;SDS011;8369;48.030;11.598;2024-03-08T14:16:51;14.40;;;9.60;;
16512;SDS011;8369;48.030;11.598;2024-03-08T14:19:18;15.40;;;9.37;;
16512;SDS011;8369;48.030;11.598;2024-03-08T14:21:44;16.07;;;9.67;;
16512;SDS011;8369;48.030;11.598;2024-03-08T14:24:10;15.03;;;10.00;;
16512;SDS011;8369;48.030;11.598;2024-03-08T14:26:36;15.33;;;9.80;;
16512;SDS011;8369;48.030;11.598;2024-03-08T14:29:04;15.27;;;9.87;;
16512;SDS011;8369;48.030;11.598;2024-03-08T14:31:31;13.93;;;9.77;;
16512;SDS011;8369;48.030;11.598;2024-03-08T14:33:56;16.20;;;10.50;;